Time;durP1;ratioP1;P1;durP2;ratioP2;P2;SDS_P1;SDS_P2;PMS_P1;PMS_P2;Temp;Humidity;BMP_temperature;BMP_pressure;BME280_temperature;BME280_humidity;BME280_pressure;Samples;Min_cycle;Max_cycle;Signal;HPM_P1;HPM_P2
2023/06/21 00:01:47;;;;;;;18.93;15.53;;;;;;;;;;5040706;28;20442;-90
2023/06/21 00:04:17;;;;;;;17.43;15.73;;;;;;;;;;5023800;28;20478;-84
2023/06/21 00:06:46;;;;;;;17.17;15.57;;;;;;;;;;5035731;28;20412;-89
2023/06/21 00:09:15;;;;;;;15.40;14.00;;;;;;;;;;5051570;28;20507;-87
2023/06/21 00:11:42;;;;;;;17.83;16.13;;;;;;;;;;5043647;28;20420;-82
2023/06/21 00:14:09;;;;;;;17.80;16.03;;;;;;;;;;5049477;28;20446;-86
2023/06/21 00:16:45;;;;;;;17.00;15.30;;;;;;;;;;5049701;28;20433;-83
2023/06/21 00:19:13;;;;;;;16.47;14.90;;;;;;;;;;5046544;28;20437;-83
2023/06/21 00:21:42;;;;;;;18.50;16.80;;;;;;;;;;5053820;28;20504;-84
2023/06/21 00:24:10;;;;;;;17.37;15.87;;;;;;;;;;5035266;28;20514;-83
2023/06/21 00:26:38;;;;;;;18.50;16.87;;;;;;;;;;5051656;28;20449;-87
2023/06/21 00:29:08;;;;;;;16.97;15.40;;;;;;;;;;5035204;28;20461;-85
2023/06/21 00:31:37;;;;;;;18.57;16.97;;;;;;;;;;5030841;28;20468;-85
2023/06/21 00:34:07;;;;;;;17.33;15.73;;;;;;;;;;5043398;28;20440;-86
2023/06/21 00:36:41;;;;;;;18.07;16.47;;;;;;;;;;5038733;28;20491;-88
2023/06/21 00:39:11;;;;;;;18.13;16.27;;;;;;;;;;5040607;28;20548;-88
2023/06/21 00:41:40;;;;;;;17.60;15.90;;;;;;;;;;5042516;28;20424;-89
2023/06/21 00:44:08;;;;;;;17.67;16.23;;;;;;;;;;5051187;28;20797;-88
2023/06/21 00:46:41;;;;;;;17.90;16.07;;;;;;;;;;5039891;28;20453;-88
2023/06/21 00:49:09;;;;;;;17.17;15.77;;;;;;;;;;5041726;28;20434;-82
2023/06/21 00:51:38;;;;;;;17.70;16.13;;;;;;;;;;5047124;28;20456;-85
2023/06/21 00:54:19;;;;;;;16.60;15.10;;;;;;;;;;5043621;28;20499;-89
2023/06/21 00:56:48;;;;;;;18.00;16.50;;;;;;;;;;5051794;28;20761;-90
2023/06/21 00:59:17;;;;;;;18.60;16.80;;;;;;;;;;5044449;28;20458;-81
2023/06/21 01:01:44;;;;;;;18.57;17.00;;;;;;;;;;5051256;28;20441;-86
2023/06/21 01:04:17;;;;;;;17.50;15.87;;;;;;;;;;5042258;28;20468;-87
2023/06/21 01:06:53;;;;;;;17.70;16.10;;;;;;;;;;5037929;28;20990;-84
2023/06/21 01:09:27;;;;;;;16.87;15.17;;;;;;;;;;5043060;28;20475;-84
2023/06/21 01:12:00;;;;;;;17.63;15.93;;;;;;;;;;5056864;28;20437;-85
2023/06/21 01:14:36;;;;;;;17.67;16.00;;;;;;;;;;5061173;28;20415;-84
2023/06/21 01:17:04;;;;;;;18.83;17.13;;;;;;;;;;5041924;28;20436;-88
2023/06/21 01:19:44;;;;;;;17.00;15.40;;;;;;;;;;5037291;28;20421;-90
2023/06/21 01:22:26;;;;;;;17.60;15.90;;;;;;;;;;5036257;28;20426;-90
2023/06/21 01:25:11;;;;;;;18.27;16.57;;;;;;;;;;5043561;28;20442;-85
2023/06/21 01:27:58;;;;;;;17.73;16.00;;;;;;;;;;5057298;28;20435;-89
2023/06/21 01:30:27;;;;;;;18.10;16.40;;;;;;;;;;5049349;28;20448;-83
2023/06/21 01:32:56;;;;;;;16.50;15.00;;;;;;;;;;5062034;28;20452;-87
2023/06/21 01:35:24;;;;;;;18.13;16.37;;;;;;;;;;5050424;28;20440;-88
2023/06/21 01:37:59;;;;;;;17.03;15.63;;;;;;;;;;5056425;28;20445;-89
2023/06/21 01:40:29;;;;;;;17.97;16.23;;;;;;;;;;5062350;28;20421;-86
2023/06/21 01:42:56;;;;;;;19.37;17.37;;;;;;;;;;5043921;28;20413;-84
2023/06/21 01:45:24;;;;;;;17.57;16.00;;;;;;;;;;5037716;28;20465;-84
2023/06/21 01:47:54;;;;;;;17.53;15.87;;;;;;;;;;5059707;28;20620;-86
2023/06/21 01:50:23;;;;;;;20.67;18.60;;;;;;;;;;5057845;28;20419;-84
2023/06/21 01:52:52;;;;;;;18.43;16.50;;;;;;;;;;5053162;28;20429;-84
2023/06/21 01:55:20;;;;;;;21.67;17.17;;;;;;;;;;5046124;28;20456;-88
2023/06/21 01:57:51;;;;;;;17.30;15.83;;;;;;;;;;5039716;28;20444;-86
2023/06/21 02:00:21;;;;;;;20.20;17.17;;;;;;;;;;5046119;28;20713;-84
2023/06/21 02:03:01;;;;;;;17.67;16.17;;;;;;;;;;5045208;28;20447;-85
2023/06/21 02:05:33;;;;;;;18.23;16.43;;;;;;;;;;5045369;28;20457;-85
2023/06/21 02:08:01;;;;;;;18.47;16.80;;;;;;;;;;5042581;28;20690;-87
2023/06/21 02:10:29;;;;;;;19.90;17.73;;;;;;;;;;5057346;28;20459;-85
2023/06/21 02:12:58;;;;;;;19.03;17.00;;;;;;;;;;5038234;28;20484;-89
2023/06/21 02:15:26;;;;;;;19.80;17.77;;;;;;;;;;5050744;28;20417;-81
2023/06/21 02:17:54;;;;;;;17.83;16.27;;;;;;;;;;5050966;28;20559;-88
2023/06/21 02:20:24;;;;;;;19.87;18.07;;;;;;;;;;5046349;28;20463;-78
2023/06/21 02:22:54;;;;;;;17.97;16.30;;;;;;;;;;5043588;28;20411;-84
2023/06/21 02:25:23;;;;;;;18.77;16.97;;;;;;;;;;5045210;28;20460;-87
2023/06/21 02:27:53;;;;;;;22.87;17.40;;;;;;;;;;5043296;28;20424;-83
2023/06/21 02:30:21;;;;;;;18.40;16.70;;;;;;;;;;5047151;28;20643;-82
2023/06/21 02:32:48;;;;;;;20.27;18.40;;;;;;;;;;5054552;28;20427;-83
2023/06/21 02:35:16;;;;;;;17.27;15.53;;;;;;;;;;5049650;28;20458;-83
2023/06/21 02:40:43;;;;;;;19.03;16.60;;;;;;;;;;5075026;22;20452;-86
2023/06/21 02:43:10;;;;;;;20.00;18.10;;;;;;;;;;5046770;28;20445;-89
2023/06/21 02:45:40;;;;;;;18.70;17.00;;;;;;;;;;5017858;28;20462;-88
2023/06/21 02:48:07;;;;;;;20.03;16.70;;;;;;;;;;5028111;28;20446;-83
2023/06/21 02:50:37;;;;;;;18.03;16.33;;;;;;;;;;5026735;28;20442;-85
2023/06/21 02:53:05;;;;;;;17.50;15.93;;;;;;;;;;5024227;28;20447;-88
2023/06/21 02:55:35;;;;;;;18.80;17.00;;;;;;;;;;5006111;28;20448;-83
2023/06/21 02:58:02;;;;;;;17.17;15.37;;;;;;;;;;5202828;23;20525;-83
2023/06/21 03:00:31;;;;;;;16.80;15.20;;;;;;;;;;5003339;28;20488;-83
2023/06/21 03:03:03;;;;;;;18.80;16.77;;;;;;;;;;5011728;28;20473;-83
2023/06/21 03:05:33;;;;;;;18.23;16.30;;;;;;;;;;4987760;28;20469;-89
2023/06/21 03:08:03;;;;;;;17.33;15.83;;;;;;;;;;5021322;28;20682;-84
2023/06/21 03:10:36;;;;;;;17.90;16.07;;;;;;;;;;5009133;28;20457;-86
2023/06/21 03:13:03;;;;;;;18.70;16.90;;;;;;;;;;5013494;28;20457;-84
2023/06/21 03:15:31;;;;;;;16.23;14.63;;;;;;;;;;5006269;28;20450;-87
2023/06/21 03:18:00;;;;;;;16.37;14.90;;;;;;;;;;5005595;28;20429;-82
2023/06/21 03:20:31;;;;;;;17.83;16.30;;;;;;;;;;4998632;28;20636;-87
2023/06/21 03:23:00;;;;;;;17.67;16.07;;;;;;;;;;5016078;28;20442;-88
2023/06/21 03:25:28;;;;;;;17.87;16.13;;;;;;;;;;5016595;28;20580;-82
2023/06/21 03:27:59;;;;;;;17.53;15.83;;;;;;;;;;5017568;28;20829;-81
2023/06/21 03:30:27;;;;;;;17.63;15.93;;;;;;;;;;5020939;28;20422;-82
2023/06/21 03:32:57;;;;;;;17.73;15.90;;;;;;;;;;5014608;28;20493;-82
2023/06/21 03:35:28;;;;;;;18.80;17.10;;;;;;;;;;5017597;28;20498;-81
2023/06/21 03:38:00;;;;;;;16.63;15.27;;;;;;;;;;5010382;28;20875;-84
2023/06/21 03:40:32;;;;;;;17.77;16.17;;;;;;;;;;4997494;28;20427;-88
2023/06/21 03:43:02;;;;;;;15.33;13.93;;;;;;;;;;5009829;28;20418;-85
2023/06/21 03:45:30;;;;;;;17.13;15.50;;;;;;;;;;4998435;28;20565;-86
2023/06/21 03:47:59;;;;;;;15.73;14.33;;;;;;;;;;5007198;28;20453;-83
2023/06/21 03:50:26;;;;;;;17.57;15.80;;;;;;;;;;5009491;28;20417;-85
2023/06/21 03:52:55;;;;;;;18.30;16.60;;;;;;;;;;5003903;28;20434;-88
2023/06/21 03:55:23;;;;;;;17.40;15.90;;;;;;;;;;5013898;28;20417;-87
2023/06/21 03:57:58;;;;;;;17.60;15.83;;;;;;;;;;5014725;28;20430;-87
2023/06/21 04:00:35;;;;;;;17.57;15.77;;;;;;;;;;5003255;28;20448;-88
2023/06/21 04:03:04;;;;;;;15.90;14.50;;;;;;;;;;5008418;28;20440;-85
2023/06/21 04:05:36;;;;;;;16.73;14.90;;;;;;;;;;5085579;22;20517;-85
2023/06/21 04:08:03;;;;;;;16.77;15.27;;;;;;;;;;5557071;22;20478;-86
2023/06/21 04:10:31;;;;;;;19.53;16.10;;;;;;;;;;5014000;28;20474;-89
2023/06/21 04:12:58;;;;;;;19.73;15.50;;;;;;;;;;5016253;28;20441;-85
2023/06/21 04:15:30;;;;;;;18.20;15.93;;;;;;;;;;5148597;22;20499;-85
2023/06/21 04:18:01;;;;;;;17.90;16.10;;;;;;;;;;5023030;28;20485;-87
2023/06/21 04:20:29;;;;;;;18.57;16.67;;;;;;;;;;4999406;28;20452;-87
2023/06/21 04:22:57;;;;;;;17.73;15.80;;;;;;;;;;4994843;28;20426;-89
2023/06/21 04:25:25;;;;;;;16.93;15.10;;;;;;;;;;5028555;28;20477;-87
2023/06/21 04:27:54;;;;;;;16.83;15.13;;;;;;;;;;5025885;28;20513;-81
2023/06/21 04:30:22;;;;;;;16.70;15.00;;;;;;;;;;4989960;28;20457;-89
2023/06/21 04:32:49;;;;;;;17.77;15.40;;;;;;;;;;5020796;28;20496;-88
2023/06/21 04:35:17;;;;;;;15.67;14.27;;;;;;;;;;5018161;28;20484;-87
2023/06/21 04:37:46;;;;;;;15.87;14.37;;;;;;;;;;5004936;28;20418;-84
2023/06/21 04:40:18;;;;;;;17.67;16.20;;;;;;;;;;5020934;28;20443;-85
2023/06/21 04:43:01;;;;;;;17.23;15.50;;;;;;;;;;5024101;28;20435;-84
2023/06/21 04:45:29;;;;;;;16.70;15.17;;;;;;;;;;5000235;28;20495;-83
2023/06/21 04:47:57;;;;;;;16.23;14.80;;;;;;;;;;5020963;28;20429;-82
2023/06/21 04:50:28;;;;;;;18.00;16.40;;;;;;;;;;5020395;28;20513;-87
2023/06/21 04:52:59;;;;;;;16.00;14.50;;;;;;;;;;5012748;28;20443;-86
2023/06/21 04:55:27;;;;;;;17.07;15.33;;;;;;;;;;5011868;28;20456;-84
2023/06/21 04:57:56;;;;;;;17.07;15.53;;;;;;;;;;5016810;28;20455;-89
2023/06/21 05:00:28;;;;;;;18.07;16.33;;;;;;;;;;5021213;28;20406;-86
2023/06/21 05:02:55;;;;;;;17.83;15.93;;;;;;;;;;4988545;28;20510;-82
2023/06/21 05:05:24;;;;;;;18.13;16.40;;;;;;;;;;4996237;28;20534;-86
2023/06/21 05:07:52;;;;;;;18.30;16.50;;;;;;;;;;5139679;22;20468;-85
2023/06/21 05:10:21;;;;;;;18.10;16.20;;;;;;;;;;5018564;28;20425;-85
2023/06/21 05:12:49;;;;;;;21.23;16.60;;;;;;;;;;5437291;22;20540;-84
2023/06/21 05:23:16;;;;;;;17.03;15.63;;;;;;;;;;5703396;22;20791;-82
2023/06/21 05:25:44;;;;;;;19.00;16.37;;;;;;;;;;5025998;28;20769;-85
2023/06/21 05:33:29;;;;;;;19.03;16.83;;;;;;;;;;5754855;22;20740;-84
2023/06/21 05:35:57;;;;;;;21.17;16.43;;;;;;;;;;5389952;22;20554;-87
2023/06/21 05:38:24;;;;;;;17.07;15.47;;;;;;;;;;5024218;28;20441;-86
2023/06/21 05:40:51;;;;;;;18.00;16.40;;;;;;;;;;5019293;28;20436;-85
2023/06/21 05:43:19;;;;;;;18.50;16.90;;;;;;;;;;5007912;28;20446;-88
2023/06/21 05:45:47;;;;;;;17.30;15.67;;;;;;;;;;5021178;28;20478;-86
2023/06/21 05:48:15;;;;;;;18.80;17.03;;;;;;;;;;5008427;28;20430;-85
2023/06/21 05:50:42;;;;;;;19.00;17.20;;;;;;;;;;5023779;28;20434;-87
2023/06/21 05:53:09;;;;;;;18.10;15.60;;;;;;;;;;5013242;28;20430;-87
2023/06/21 05:55:37;;;;;;;18.60;16.83;;;;;;;;;;5021022;28;20436;-87
2023/06/21 05:58:05;;;;;;;18.07;15.97;;;;;;;;;;5029608;28;20449;-87
2023/06/21 06:00:32;;;;;;;18.20;16.70;;;;;;;;;;5008476;28;20502;-85
2023/06/21 06:03:01;;;;;;;18.83;16.83;;;;;;;;;;5015916;28;20425;-86
2023/06/21 06:05:28;;;;;;;18.13;16.43;;;;;;;;;;5017309;28;20461;-87
2023/06/21 06:07:56;;;;;;;19.13;16.37;;;;;;;;;;5012106;28;20432;-87
2023/06/21 06:10:23;;;;;;;19.90;18.00;;;;;;;;;;5004860;28;20858;-87
2023/06/21 06:12:51;;;;;;;18.33;16.63;;;;;;;;;;5019646;28;20447;-87
2023/06/21 06:15:18;;;;;;;21.20;18.77;;;;;;;;;;4993319;28;20630;-85
2023/06/21 06:17:46;;;;;;;18.27;16.67;;;;;;;;;;5002734;28;20417;-85
2023/06/21 06:20:14;;;;;;;21.00;16.80;;;;;;;;;;5005514;28;20418;-85
2023/06/21 06:22:41;;;;;;;22.37;19.37;;;;;;;;;;5013182;28;20687;-86
2023/06/21 06:25:10;;;;;;;23.27;20.77;;;;;;;;;;5015391;28;20665;-87
2023/06/21 06:27:38;;;;;;;24.20;19.90;;;;;;;;;;5013033;28;20426;-87
2023/06/21 06:30:06;;;;;;;21.93;19.63;;;;;;;;;;4991591;28;20473;-86
2023/06/21 06:32:33;;;;;;;20.90;18.83;;;;;;;;;;5009861;28;20458;-82
2023/06/21 06:35:01;;;;;;;19.87;18.17;;;;;;;;;;5011558;28;20450;-83
2023/06/21 06:37:29;;;;;;;25.20;22.10;;;;;;;;;;5010134;28;20457;-86
2023/06/21 06:39:58;;;;;;;22.93;20.80;;;;;;;;;;5016722;28;20485;-86
2023/06/21 06:42:26;;;;;;;21.47;19.43;;;;;;;;;;5002274;28;20449;-81
2023/06/21 06:44:55;;;;;;;22.60;20.40;;;;;;;;;;5011864;28;20549;-82
2023/06/21 06:47:28;;;;;;;23.63;21.17;;;;;;;;;;5018289;28;20414;-81
2023/06/21 06:49:57;;;;;;;23.97;21.57;;;;;;;;;;5017596;28;20481;-80
2023/06/21 06:52:25;;;;;;;25.20;22.60;;;;;;;;;;5003210;28;20773;-83
2023/06/21 06:54:52;;;;;;;24.43;22.17;;;;;;;;;;5004951;28;20442;-82
2023/06/21 06:57:19;;;;;;;27.93;23.97;;;;;;;;;;5002692;28;20712;-83
2023/06/21 07:00:01;;;;;;;25.33;22.70;;;;;;;;;;5016733;28;20485;-87
2023/06/21 07:02:28;;;;;;;24.90;21.67;;;;;;;;;;5006284;28;20531;-84
2023/06/21 07:04:56;;;;;;;28.90;22.80;;;;;;;;;;5015117;28;20463;-83
2023/06/21 07:07:23;;;;;;;24.57;22.07;;;;;;;;;;5011677;28;20495;-84
2023/06/21 07:09:51;;;;;;;24.53;22.03;;;;;;;;;;5023681;28;20406;-83
2023/06/21 07:15:00;;;;;;;25.90;23.20;;;;;;;;;;5261118;22;20477;-81
2023/06/21 07:17:28;;;;;;;28.13;25.43;;;;;;;;;;5003190;28;20469;-82
2023/06/21 07:19:55;;;;;;;32.63;24.97;;;;;;;;;;5003434;28;20473;-80
2023/06/21 07:22:23;;;;;;;26.40;23.63;;;;;;;;;;4999116;28;20746;-79
2023/06/21 07:24:51;;;;;;;28.70;25.97;;;;;;;;;;5002785;28;20482;-80
2023/06/21 07:27:19;;;;;;;28.57;26.03;;;;;;;;;;4995878;28;20519;-80
2023/06/21 07:29:48;;;;;;;27.63;25.00;;;;;;;;;;4996311;28;20496;-82
2023/06/21 07:32:15;;;;;;;31.50;28.23;;;;;;;;;;4983546;28;20406;-81
2023/06/21 07:34:44;;;;;;;40.10;31.23;;;;;;;;;;5012059;28;20493;-83
2023/06/21 07:37:15;;;;;;;34.73;30.03;;;;;;;;;;5014892;28;20746;-88
2023/06/21 07:39:46;;;;;;;32.10;29.00;;;;;;;;;;4987954;28;20596;-85
2023/06/21 07:42:20;;;;;;;41.17;32.20;;;;;;;;;;5011368;28;20944;-85
2023/06/21 07:44:50;;;;;;;38.13;34.10;;;;;;;;;;5007165;28;20518;-87
2023/06/21 07:47:18;;;;;;;38.23;34.60;;;;;;;;;;5293184;22;20453;-84
2023/06/21 07:49:46;;;;;;;39.87;36.10;;;;;;;;;;5028609;28;20440;-87
2023/06/21 07:52:14;;;;;;;41.83;37.47;;;;;;;;;;5154477;22;20450;-85
2023/06/21 07:54:48;;;;;;;42.40;37.90;;;;;;;;;;5022164;28;20441;-87
2023/06/21 07:57:16;;;;;;;41.53;37.00;;;;;;;;;;5000589;28;20504;-85
2023/06/21 07:59:44;;;;;;;40.33;36.23;;;;;;;;;;5025836;28;20563;-88
2023/06/21 08:02:17;;;;;;;46.93;42.37;;;;;;;;;;5025708;28;20879;-83
2023/06/21 08:04:45;;;;;;;49.30;44.20;;;;;;;;;;5022700;28;20517;-80
2023/06/21 08:07:14;;;;;;;38.60;35.30;;;;;;;;;;5028867;28;20470;-84
2023/06/21 08:09:41;;;;;;;29.63;26.57;;;;;;;;;;5015852;28;20418;-82
2023/06/21 08:12:09;;;;;;;28.37;25.87;;;;;;;;;;5005101;28;20422;-83
2023/06/21 08:14:36;;;;;;;28.90;26.17;;;;;;;;;;4998418;28;20755;-83
2023/06/21 08:17:04;;;;;;;27.07;24.57;;;;;;;;;;5012417;28;20742;-85
2023/06/21 08:19:31;;;;;;;29.30;24.50;;;;;;;;;;5014944;28;20446;-84
2023/06/21 08:21:58;;;;;;;26.70;24.30;;;;;;;;;;5028261;28;20425;-82
2023/06/21 08:24:29;;;;;;;27.17;24.30;;;;;;;;;;5012260;28;20451;-82
2023/06/21 08:26:57;;;;;;;22.03;19.93;;;;;;;;;;5022568;28;20404;-81
2023/06/21 08:29:24;;;;;;;19.70;18.00;;;;;;;;;;5012197;28;20438;-86
2023/06/21 08:31:51;;;;;;;21.87;19.70;;;;;;;;;;5008443;28;20778;-79
2023/06/21 08:34:19;;;;;;;20.00;18.40;;;;;;;;;;5021268;28;20446;-81
2023/06/21 08:36:46;;;;;;;17.93;16.37;;;;;;;;;;5008680;28;20436;-83
2023/06/21 08:39:14;;;;;;;18.87;17.37;;;;;;;;;;5012484;28;20446;-81
2023/06/21 08:41:41;;;;;;;17.93;16.27;;;;;;;;;;5008407;28;20458;-81
2023/06/21 08:44:09;;;;;;;16.20;14.80;;;;;;;;;;5011944;28;20497;-81
2023/06/21 08:46:36;;;;;;;17.17;15.63;;;;;;;;;;5009730;28;20550;-80
2023/06/21 08:49:05;;;;;;;17.60;16.10;;;;;;;;;;5018052;28;20454;-79
2023/06/21 08:51:35;;;;;;;18.60;17.07;;;;;;;;;;5013692;28;20630;-83
2023/06/21 08:54:06;;;;;;;20.73;18.60;;;;;;;;;;5010437;28;20521;-83
2023/06/21 08:56:42;;;;;;;20.33;18.47;;;;;;;;;;5015525;28;20447;-81
2023/06/21 08:59:16;;;;;;;20.80;19.00;;;;;;;;;;5006806;28;20470;-83
2023/06/21 09:02:07;;;;;;;19.50;17.90;;;;;;;;;;5018543;28;20486;-81
2023/06/21 09:04:38;;;;;;;19.07;17.37;;;;;;;;;;5004373;28;20448;-79
2023/06/21 09:07:07;;;;;;;19.13;17.27;;;;;;;;;;5001126;28;20445;-85
2023/06/21 09:09:37;;;;;;;17.37;15.87;;;;;;;;;;5012196;28;20820;-83
2023/06/21 09:12:06;;;;;;;16.07;14.77;;;;;;;;;;5005921;28;20647;-80
2023/06/21 09:14:33;;;;;;;17.27;15.40;;;;;;;;;;5006088;28;20461;-79
2023/06/21 09:17:01;;;;;;;15.60;14.30;;;;;;;;;;5011223;28;20977;-79
2023/06/21 09:19:29;;;;;;;18.00;16.57;;;;;;;;;;5011411;28;20651;-84
2023/06/21 09:21:57;;;;;;;15.77;14.40;;;;;;;;;;5003128;28;20720;-84
2023/06/21 09:24:25;;;;;;;15.73;14.30;;;;;;;;;;5012372;28;20543;-85
2023/06/21 09:27:00;;;;;;;15.50;14.20;;;;;;;;;;5011043;28;20825;-86
2023/06/21 09:29:28;;;;;;;15.60;14.37;;;;;;;;;;5015358;28;20612;-81
2023/06/21 09:31:57;;;;;;;17.07;15.40;;;;;;;;;;5013175;28;20439;-81
2023/06/21 09:34:25;;;;;;;16.83;15.37;;;;;;;;;;4988212;28;20518;-85
2023/06/21 09:36:54;;;;;;;14.00;13.00;;;;;;;;;;5011724;28;20510;-82
2023/06/21 09:39:27;;;;;;;15.90;14.53;;;;;;;;;;4995959;28;20511;-82
2023/06/21 09:41:55;;;;;;;15.50;14.30;;;;;;;;;;5012044;28;20427;-83
2023/06/21 09:44:22;;;;;;;16.27;14.77;;;;;;;;;;5008906;28;20457;-86
2023/06/21 09:46:58;;;;;;;14.30;13.10;;;;;;;;;;5015791;28;20482;-81
2023/06/21 09:49:28;;;;;;;14.93;13.63;;;;;;;;;;5018792;28;20466;-82
2023/06/21 09:51:56;;;;;;;16.13;14.10;;;;;;;;;;5006579;28;20596;-85
2023/06/21 09:54:24;;;;;;;15.50;14.20;;;;;;;;;;4993912;28;20485;-82
2023/06/21 09:56:52;;;;;;;15.60;14.00;;;;;;;;;;5008097;28;20447;-84
2023/06/21 09:59:20;;;;;;;16.23;14.60;;;;;;;;;;5001959;28;20510;-86
2023/06/21 10:01:49;;;;;;;15.80;14.60;;;;;;;;;;5004939;28;20647;-81
2023/06/21 10:04:18;;;;;;;14.97;13.87;;;;;;;;;;4997962;28;20482;-84
2023/06/21 10:06:49;;;;;;;16.40;13.93;;;;;;;;;;4996360;28;20832;-82
2023/06/21 10:09:17;;;;;;;15.87;14.37;;;;;;;;;;5017208;28;20451;-82
2023/06/21 10:11:50;;;;;;;14.90;13.70;;;;;;;;;;5000041;28;20521;-83
2023/06/21 10:14:19;;;;;;;14.50;13.50;;;;;;;;;;4997248;28;20439;-87
2023/06/21 10:16:51;;;;;;;14.83;13.53;;;;;;;;;;5011771;28;20447;-84
2023/06/21 10:19:21;;;;;;;16.70;14.40;;;;;;;;;;5015210;28;20748;-84
2023/06/21 10:21:57;;;;;;;16.10;14.60;;;;;;;;;;5012862;28;20439;-85
2023/06/21 10:24:26;;;;;;;14.97;13.77;;;;;;;;;;5010599;28;20477;-84
2023/06/21 10:26:54;;;;;;;16.53;15.10;;;;;;;;;;5018286;28;20909;-83
2023/06/21 10:29:23;;;;;;;16.63;15.23;;;;;;;;;;4993593;28;20561;-85
2023/06/21 10:31:52;;;;;;;17.30;15.70;;;;;;;;;;5010394;28;20481;-82
2023/06/21 10:34:21;;;;;;;14.77;13.43;;;;;;;;;;4993667;28;20439;-83
2023/06/21 10:36:51;;;;;;;16.70;15.33;;;;;;;;;;5005156;28;20450;-85
2023/06/21 10:39:20;;;;;;;15.03;13.70;;;;;;;;;;4987586;28;20436;-86
2023/06/21 10:41:49;;;;;;;16.07;13.90;;;;;;;;;;4997707;28;20493;-85
2023/06/21 10:44:18;;;;;;;15.00;13.80;;;;;;;;;;5003345;28;20459;-86
2023/06/21 10:46:51;;;;;;;15.47;13.93;;;;;;;;;;5019257;28;20478;-83
2023/06/21 10:49:19;;;;;;;15.10;13.60;;;;;;;;;;5015312;28;20573;-84
2023/06/21 10:51:47;;;;;;;14.00;12.60;;;;;;;;;;5012632;28;20506;-88
2023/06/21 10:54:16;;;;;;;13.97;12.87;;;;;;;;;;5009493;28;20443;-81
2023/06/21 10:56:44;;;;;;;14.97;13.43;;;;;;;;;;5011347;28;20473;-84
2023/06/21 10:59:11;;;;;;;13.47;12.37;;;;;;;;;;5002919;28;20447;-82
2023/06/21 11:01:39;;;;;;;14.57;13.27;;;;;;;;;;5001447;28;20502;-86
2023/06/21 11:04:08;;;;;;;13.70;12.40;;;;;;;;;;5016968;28;20497;-86
2023/06/21 11:06:37;;;;;;;14.53;13.27;;;;;;;;;;5005135;28;20552;-85
2023/06/21 11:09:11;;;;;;;13.80;12.70;;;;;;;;;;5015375;28;20439;-84
2023/06/21 11:11:48;;;;;;;14.13;12.70;;;;;;;;;;5007863;28;20470;-83
2023/06/21 11:14:20;;;;;;;14.13;13.03;;;;;;;;;;5004427;28;20447;-84
2023/06/21 11:16:47;;;;;;;14.93;13.53;;;;;;;;;;5001517;28;20442;-83
2023/06/21 11:19:15;;;;;;;15.73;14.37;;;;;;;;;;5004967;28;20794;-83
2023/06/21 11:21:49;;;;;;;14.83;13.63;;;;;;;;;;4993468;28;20439;-86
2023/06/21 11:24:18;;;;;;;15.93;14.23;;;;;;;;;;5011427;28;20453;-85
2023/06/21 11:27:03;;;;;;;14.67;13.53;;;;;;;;;;4992669;28;20485;-86
2023/06/21 11:29:36;;;;;;;15.27;13.93;;;;;;;;;;5010888;28;20453;-81
2023/06/21 11:32:16;;;;;;;14.33;12.93;;;;;;;;;;5005673;28;20516;-82
2023/06/21 11:34:53;;;;;;;16.17;14.50;;;;;;;;;;4990505;28;20699;-83
2023/06/21 11:37:49;;;;;;;15.80;14.50;;;;;;;;;;5006419;28;20450;-84
2023/06/21 11:40:26;;;;;;;15.37;14.03;;;;;;;;;;4981236;28;20474;-82
2023/06/21 11:42:56;;;;;;;14.73;13.30;;;;;;;;;;5011974;28;20426;-81
2023/06/21 11:45:33;;;;;;;14.77;13.53;;;;;;;;;;5014051;28;20572;-85
2023/06/21 11:48:08;;;;;;;14.67;13.47;;;;;;;;;;5011218;28;20440;-84
2023/06/21 11:50:43;;;;;;;15.33;13.77;;;;;;;;;;5014778;28;20482;-84
2023/06/21 11:53:17;;;;;;;13.60;12.37;;;;;;;;;;5012551;28;20463;-86
2023/06/21 11:55:47;;;;;;;15.13;13.57;;;;;;;;;;5015699;28;20456;-82
2023/06/21 11:58:23;;;;;;;14.30;13.20;;;;;;;;;;5010960;28;20446;-83
2023/06/21 12:01:07;;;;;;;14.40;13.10;;;;;;;;;;4993587;28;20452;-84
2023/06/21 12:03:36;;;;;;;15.10;13.90;;;;;;;;;;5005846;28;20447;-84
2023/06/21 12:06:05;;;;;;;15.87;14.57;;;;;;;;;;4992018;28;20542;-86
2023/06/21 12:08:35;;;;;;;15.30;14.00;;;;;;;;;;5013853;28;20458;-82
2023/06/21 12:11:03;;;;;;;14.50;13.30;;;;;;;;;;5013570;28;20457;-82
2023/06/21 12:13:31;;;;;;;14.90;13.57;;;;;;;;;;5024690;28;20459;-82
2023/06/21 12:15:59;;;;;;;15.03;13.83;;;;;;;;;;4999976;28;20809;-83
2023/06/21 12:18:28;;;;;;;14.43;13.03;;;;;;;;;;5019542;28;20534;-85
2023/06/21 12:20:58;;;;;;;15.00;13.70;;;;;;;;;;4999165;28;20747;-85
2023/06/21 12:23:28;;;;;;;15.00;13.70;;;;;;;;;;4993869;28;20707;-85
2023/06/21 12:25:56;;;;;;;15.40;14.03;;;;;;;;;;5022297;28;20496;-86
2023/06/21 12:28:24;;;;;;;14.97;13.87;;;;;;;;;;5012763;28;20442;-84
2023/06/21 12:30:59;;;;;;;15.33;13.57;;;;;;;;;;5010929;28;20523;-86
2023/06/21 12:33:28;;;;;;;14.77;13.67;;;;;;;;;;5006044;28;20445;-87
2023/06/21 12:36:17;;;;;;;14.80;13.50;;;;;;;;;;5021190;28;20442;-86
2023/06/21 12:38:55;;;;;;;14.07;13.03;;;;;;;;;;5004786;28;20501;-85
2023/06/21 12:41:23;;;;;;;14.57;13.03;;;;;;;;;;5024045;28;20426;-87
2023/06/21 12:43:53;;;;;;;15.03;13.93;;;;;;;;;;5005622;28;20461;-84
2023/06/21 12:46:21;;;;;;;15.00;13.80;;;;;;;;;;5011888;28;20517;-90
2023/06/21 12:48:57;;;;;;;14.33;13.13;;;;;;;;;;5020931;28;20453;-85
2023/06/21 12:51:33;;;;;;;15.63;14.43;;;;;;;;;;5009640;28;20506;-84
2023/06/21 12:54:02;;;;;;;15.67;14.47;;;;;;;;;;5012588;28;20436;-83
2023/06/21 12:56:33;;;;;;;15.53;14.00;;;;;;;;;;5006348;28;20759;-83
2023/06/21 12:59:02;;;;;;;16.03;14.77;;;;;;;;;;4996532;28;20457;-85
2023/06/21 13:01:30;;;;;;;16.03;14.50;;;;;;;;;;5011911;28;20446;-87
2023/06/21 13:03:58;;;;;;;15.37;14.17;;;;;;;;;;5007301;28;20791;-85
2023/06/21 13:06:26;;;;;;;15.20;14.00;;;;;;;;;;4992037;28;20481;-85
2023/06/21 13:08:55;;;;;;;16.50;15.10;;;;;;;;;;5018957;28;20473;-88
2023/06/21 13:11:23;;;;;;;15.27;13.83;;;;;;;;;;5011193;28;20488;-88
2023/06/21 13:13:51;;;;;;;16.33;14.93;;;;;;;;;;5012549;28;20726;-85
2023/06/21 13:16:18;;;;;;;14.77;13.67;;;;;;;;;;5005562;28;20485;-85
2023/06/21 13:18:47;;;;;;;15.97;14.40;;;;;;;;;;4976518;28;20497;-86
2023/06/21 13:21:16;;;;;;;15.13;13.67;;;;;;;;;;5016046;28;20592;-88
2023/06/21 13:23:44;;;;;;;15.40;14.13;;;;;;;;;;5018704;28;20807;-86
2023/06/21 13:26:14;;;;;;;12.80;11.80;;;;;;;;;;5000218;28;20505;-81
2023/06/21 13:28:41;;;;;;;12.60;11.50;;;;;;;;;;5013634;28;20462;-85
2023/06/21 13:31:12;;;;;;;14.40;13.20;;;;;;;;;;5013290;28;20951;-87
2023/06/21 13:33:40;;;;;;;12.70;11.50;;;;;;;;;;5005862;28;20443;-84
2023/06/21 13:36:08;;;;;;;11.30;10.37;;;;;;;;;;5013665;28;20763;-83
2023/06/21 13:38:35;;;;;;;10.67;9.87;;;;;;;;;;5020390;28;20743;-84
2023/06/21 13:41:03;;;;;;;10.87;9.80;;;;;;;;;;5022446;28;20453;-83
2023/06/21 13:43:31;;;;;;;10.77;9.83;;;;;;;;;;5021087;28;20450;-85
2023/06/21 13:45:59;;;;;;;10.03;9.10;;;;;;;;;;5012646;28;20467;-84
2023/06/21 13:48:29;;;;;;;8.70;8.00;;;;;;;;;;5016276;28;20450;-82
2023/06/21 13:50:56;;;;;;;7.90;7.20;;;;;;;;;;5017260;28;20467;-84
2023/06/21 13:53:25;;;;;;;7.50;6.90;;;;;;;;;;5027502;28;20561;-80
2023/06/21 13:55:53;;;;;;;7.30;6.80;;;;;;;;;;5006414;28;20486;-88
2023/06/21 13:58:20;;;;;;;7.23;6.53;;;;;;;;;;4994385;28;20670;-82
2023/06/21 14:00:48;;;;;;;7.70;7.10;;;;;;;;;;5019095;28;20649;-85
2023/06/21 14:03:15;;;;;;;7.07;6.57;;;;;;;;;;5023118;28;20447;-83
2023/06/21 14:05:43;;;;;;;6.60;6.10;;;;;;;;;;5019180;28;20450;-86
2023/06/21 14:08:10;;;;;;;6.80;6.20;;;;;;;;;;5015327;28;20896;-83
2023/06/21 14:10:38;;;;;;;6.80;6.00;;;;;;;;;;5006233;28;20454;-82
2023/06/21 14:13:05;;;;;;;7.80;6.93;;;;;;;;;;5011408;28;20510;-86
2023/06/21 14:15:32;;;;;;;6.47;5.97;;;;;;;;;;4995495;28;20451;-82
2023/06/21 14:18:02;;;;;;;6.83;6.33;;;;;;;;;;5006395;28;20457;-82
2023/06/21 14:20:31;;;;;;;7.10;6.60;;;;;;;;;;5020992;28;20762;-84
2023/06/21 14:22:59;;;;;;;7.30;6.70;;;;;;;;;;5017224;28;20494;-81
2023/06/21 14:25:26;;;;;;;7.07;6.47;;;;;;;;;;5021270;28;20456;-83
2023/06/21 14:27:54;;;;;;;8.50;7.13;;;;;;;;;;5007162;28;20988;-83
2023/06/21 14:30:21;;;;;;;6.87;6.30;;;;;;;;;;5012337;28;20448;-85
2023/06/21 14:32:48;;;;;;;6.93;6.37;;;;;;;;;;5013800;28;20707;-83
2023/06/21 14:35:19;;;;;;;7.37;6.73;;;;;;;;;;5017422;28;20450;-81
2023/06/21 14:37:49;;;;;;;8.13;7.43;;;;;;;;;;5022069;28;20523;-86
2023/06/21 14:40:17;;;;;;;7.43;6.73;;;;;;;;;;5020880;28;20444;-86
2023/06/21 14:42:44;;;;;;;8.13;7.33;;;;;;;;;;4998804;28;20439;-86
2023/06/21 14:45:12;;;;;;;10.33;7.57;;;;;;;;;;5004643;28;20560;-84
2023/06/21 14:47:39;;;;;;;7.93;7.03;;;;;;;;;;5017907;28;20478;-85
2023/06/21 14:50:07;;;;;;;8.30;7.67;;;;;;;;;;5019927;28;20813;-81
2023/06/21 14:52:34;;;;;;;7.80;7.20;;;;;;;;;;5011810;28;20438;-86